Portada
METAR-TAF:

METAR-TAF

Aeroports :

Farnborough, Anglaterra

latitud: 51-17N, longitud: 000-46W, altitud: 65 m

Observació

L'informe es va fer fa 35 minuts, a les 03:50 UTC
Vent 9 kt del Est
Temperatura 5°C
Humitat 87%
Pressió 1005 hPa
Visibilitat 10 km o més

METAR: EGLF 210350Z AUTO 08009KT 9999 OVC015/// 05/03 Q1005

Hora: 04:25 (04:25 UTC)

Pronòstic

L'informe es va fer fa 8 hores i 25 minuts, a les 20:00 UTC
Pronòstic vàlid del 20 a les 21 UTC al 20 a les 23 UTC
Vent 9 kt del Est
Visibilitat 10 km o més
Cel ennuvolat a una alçada de 2200 ft
Probabilitat 30% :
Temporalment
l' 20 a les 21 UTC al 20 a les 23 UTC
Cel ennuvolat a una alçada de 1300 ft

TAF: EGLF 202000Z 2021/2023 10009KT 9999 BKN022 PROB30 TEMPO 2021/2023 BKN013

Observacions i pronòstics meteorològics de més de 4000 aeroports (METAR i TAF).

Les estacions disponibles són els punts grocs i vermells al mapa.

Posi el ratolí al punt desitjat per veure el nom de l'estació.

Feu clic per veure les observacions i els pronòstics meteorològics.

Per canviar el mapa: feu clic els botons verds amb una creu de color negre per apropar; al botó verd amb un guió per allunyar la imatge; o en les fletxes verdes per a mapes adjacents.


METAR-TAF: